SAN weather

San Diego International Airport
San Diego, California, United States

Public forecast

Using degrees Fahrenheit for public forecast. Weather courtesy of forecast.io.

METAR (pilot weather report)

Retrieved 2019/04/23 09:36 UTC (0 seconds ago):

KSAN 230936Z 00000KT 10SM BKN012 16/12 A2999 RMK AO2 T01560122

TAF (pilot weather forecast)

Retrieved 2019/04/23 06:22 UTC (3 hours ago):

TAF KSAN 230520Z 2306/2412 VRB04KT P6SM FEW130 FM231000 VRB04KT P6SM BKN010 FM231800 28008KT P6SM FEW012 FM240200 VRB04KT P6SM SCT009 FM240800 VRB04KT P6SM BKN009